createdAt,value
2022-11-18T00:01:33.109Z,98948.59
2022-11-18T00:04:01.880Z,98941.69
2022-11-18T00:06:31.559Z,98945.16
2022-11-18T00:09:01.354Z,98948.63
2022-11-18T00:11:48.238Z,98945.25
2022-11-18T00:14:21.333Z,98947.78
2022-11-18T00:16:53.142Z,98946.88
2022-11-18T00:19:22.101Z,98954.56
2022-11-18T00:21:51.150Z,98947.63
2022-11-18T00:24:20.084Z,98954.34
2022-11-18T00:26:48.981Z,98951.75
2022-11-18T00:29:20.741Z,98956.06
2022-11-18T00:31:49.556Z,98952.75
2022-11-18T00:34:19.623Z,98947.69
2022-11-18T00:36:49.298Z,98957.16
2022-11-18T00:39:19.807Z,98969.19
2022-11-18T00:42:06.680Z,98958.13
2022-11-18T00:44:37.124Z,98955.47
2022-11-18T00:47:06.041Z,98948.63
2022-11-18T00:49:34.454Z,98944.38
2022-11-18T00:52:02.815Z,98948.63
2022-11-18T00:54:31.138Z,98950.31
2022-11-18T00:56:59.578Z,98950.44
2022-11-18T00:59:28.212Z,98944.44
2022-11-18T01:01:58.204Z,98939.28
2022-11-18T01:04:26.604Z,98941.00
2022-11-18T01:06:55.263Z,98950.50
2022-11-18T01:09:24.115Z,98952.19
2022-11-18T01:12:09.451Z,98940.22
2022-11-18T01:14:37.762Z,98938.56
2022-11-18T01:17:07.666Z,98939.44
2022-11-18T01:19:36.816Z,98940.28
2022-11-18T01:22:05.498Z,98938.63
2022-11-18T01:24:35.323Z,98934.34
2022-11-18T01:27:04.081Z,98927.59
2022-11-18T01:29:32.679Z,98933.69
2022-11-18T01:32:23.218Z,98931.97
2022-11-18T01:34:51.339Z,98932.84
2022-11-18T01:37:19.780Z,98933.59
2022-11-18T01:39:48.097Z,98932.75
2022-11-18T01:42:18.133Z,98925.94
2022-11-18T01:45:16.814Z,98933.72
2022-11-18T01:47:48.964Z,98929.50
2022-11-18T01:50:21.799Z,98925.22
2022-11-18T01:52:52.360Z,98925.22
2022-11-18T01:55:26.036Z,98919.97
2022-11-18T01:58:03.619Z,98908.91
2022-11-18T02:00:32.322Z,98918.41
2022-11-18T02:03:03.347Z,98920.22
2022-11-18T02:05:35.236Z,98917.72
2022-11-18T02:08:04.901Z,98909.13
2022-11-18T02:10:33.462Z,98914.25
2022-11-18T02:13:02.848Z,98912.59
2022-11-18T02:15:46.751Z,98919.50
2022-11-18T02:18:25.831Z,98928.13
2022-11-18T02:21:00.483Z,98924.69
2022-11-18T02:23:55.352Z,98931.47
2022-11-18T02:27:03.316Z,98922.88
2022-11-18T02:29:37.396Z,98922.06
2022-11-18T02:32:13.250Z,98916.94
2022-11-18T02:34:49.591Z,98910.00
2022-11-18T02:37:26.821Z,98905.75
2022-11-18T02:40:01.812Z,98898.00
2022-11-18T02:42:34.296Z,98890.28
2022-11-18T02:45:08.158Z,98886.00
2022-11-18T02:47:38.785Z,98871.38
2022-11-18T02:50:12.613Z,98877.41
2022-11-18T02:52:44.162Z,98880.81
2022-11-18T02:55:15.715Z,98879.09
2022-11-18T02:57:46.190Z,98876.53
2022-11-18T03:00:18.337Z,98870.44
2022-11-18T03:02:49.062Z,98873.00
2022-11-18T03:05:23.088Z,98876.41
2022-11-18T03:07:58.075Z,98869.66
2022-11-18T03:10:33.458Z,98868.78
2022-11-18T03:13:11.803Z,98879.09
2022-11-18T03:15:49.607Z,98879.97
2022-11-18T03:18:26.826Z,98879.13
2022-11-18T03:21:00.152Z,98883.47
2022-11-18T03:23:37.408Z,98879.19
2022-11-18T03:26:11.292Z,98879.13
2022-11-18T03:28:47.992Z,98888.59
2022-11-18T03:31:23.103Z,98876.56
2022-11-18T03:33:55.787Z,98873.97
2022-11-18T03:36:28.434Z,98876.50
2022-11-18T03:39:04.625Z,98873.91
2022-11-18T03:41:39.434Z,98870.44
2022-11-18T03:44:13.983Z,98869.53
2022-11-18T03:46:47.748Z,98867.00
2022-11-18T03:49:22.005Z,98866.25
2022-11-18T03:51:55.607Z,98862.06
2022-11-18T03:54:29.145Z,98856.97
2022-11-18T03:57:00.867Z,98855.28
2022-11-18T03:59:34.684Z,98848.44
2022-11-18T04:02:09.536Z,98858.72
2022-11-18T04:04:38.406Z,98851.88
2022-11-18T04:07:13.264Z,98861.31
2022-11-18T04:09:46.061Z,98859.59
2022-11-18T04:12:19.465Z,98867.34
2022-11-18T04:14:50.008Z,98871.66
2022-11-18T04:17:23.128Z,98863.94
2022-11-18T04:19:51.885Z,98864.72
2022-11-18T04:22:20.378Z,98859.63
2022-11-18T04:24:49.134Z,98856.22
2022-11-18T04:27:17.525Z,98861.34
2022-11-18T04:29:46.124Z,98849.34
2022-11-18T04:32:14.457Z,98842.47
2022-11-18T04:34:44.734Z,98845.03
2022-11-18T04:37:12.919Z,98845.84
2022-11-18T04:39:41.319Z,98841.63
2022-11-18T04:42:10.148Z,98845.06
2022-11-18T04:44:38.496Z,98833.03
2022-11-18T04:47:08.446Z,98833.88
2022-11-18T04:49:37.187Z,98838.22
2022-11-18T04:52:07.395Z,98832.19
2022-11-18T04:54:35.961Z,98829.56
2022-11-18T04:57:04.718Z,98824.41
2022-11-18T04:59:33.142Z,98831.28
2022-11-18T05:02:02.115Z,98829.56
2022-11-18T05:04:32.774Z,98825.25
2022-11-18T05:07:03.317Z,98827.84
2022-11-18T05:09:34.341Z,98826.09
2022-11-18T05:12:20.793Z,98814.94
2022-11-18T05:14:50.846Z,98823.50
2022-11-18T05:17:20.420Z,98825.19
2022-11-18T05:19:48.938Z,98831.16
2022-11-18T05:22:17.738Z,98828.66
2022-11-18T05:24:47.824Z,98828.59
2022-11-18T05:27:16.454Z,98826.84
2022-11-18T05:29:44.925Z,98818.22
2022-11-18T05:32:13.563Z,98814.84
2022-11-18T05:34:43.724Z,98817.41
2022-11-18T05:37:13.802Z,98819.91
2022-11-18T05:39:42.320Z,98819.81
2022-11-18T05:42:30.881Z,98821.53
2022-11-18T05:44:59.305Z,98816.38
2022-11-18T05:47:49.857Z,98823.34
2022-11-18T05:50:21.445Z,98818.00
2022-11-18T05:52:50.311Z,98815.47
2022-11-18T05:55:20.935Z,98811.97
2022-11-18T05:57:51.612Z,98815.47
2022-11-18T06:00:20.328Z,98812.00
2022-11-18T06:02:52.237Z,98819.72
2022-11-18T06:05:23.431Z,98830.91
2022-11-18T06:07:58.102Z,98829.28
2022-11-18T06:10:30.570Z,98834.50
2022-11-18T06:13:04.297Z,98830.97
2022-11-18T06:15:36.764Z,98832.75
2022-11-18T06:18:09.499Z,98840.53
2022-11-18T06:20:40.421Z,98843.00
2022-11-18T06:23:10.581Z,98842.13
2022-11-18T06:25:41.362Z,98841.31
2022-11-18T06:28:13.729Z,98849.88
2022-11-18T06:30:42.193Z,98852.53
2022-11-18T06:33:13.776Z,98861.94
2022-11-18T06:35:43.534Z,98855.94
2022-11-18T06:38:12.019Z,98859.41
2022-11-18T06:40:40.494Z,98864.41
2022-11-18T06:43:27.067Z,98873.75
2022-11-18T06:46:17.428Z,98875.31
2022-11-18T06:48:46.804Z,98877.03
2022-11-18T06:51:15.283Z,98877.06
2022-11-18T06:53:44.081Z,98871.13
2022-11-18T06:56:14.825Z,98878.91
2022-11-18T06:58:44.227Z,98884.09
2022-11-18T07:01:16.734Z,98885.75
2022-11-18T07:03:47.546Z,98886.63
2022-11-18T07:06:17.804Z,98875.44
2022-11-18T07:08:46.962Z,98890.00
2022-11-18T07:11:17.858Z,98883.16
2022-11-18T07:13:47.140Z,98885.72
2022-11-18T07:16:19.087Z,98886.56
2022-11-18T07:18:49.110Z,98887.31
2022-11-18T07:21:19.799Z,98884.66
2022-11-18T07:23:49.017Z,98894.13
2022-11-18T07:26:18.122Z,98895.84
2022-11-18T07:28:46.875Z,98889.88
2022-11-18T07:31:18.501Z,98889.88
2022-11-18T07:33:47.910Z,98888.13
2022-11-18T07:36:18.092Z,98889.88
2022-11-18T07:38:48.063Z,98884.66
2022-11-18T07:41:18.638Z,98894.94
2022-11-18T07:43:48.137Z,98899.16
2022-11-18T07:46:21.120Z,98900.00
2022-11-18T07:48:51.203Z,98897.34
2022-11-18T07:51:21.954Z,98892.03
2022-11-18T07:53:51.131Z,98894.41
2022-11-18T07:56:20.372Z,98897.78
2022-11-18T07:58:49.894Z,98896.97
2022-11-18T08:01:22.249Z,98904.81
2022-11-18T08:03:51.818Z,98904.03
2022-11-18T08:06:20.785Z,98901.47
2022-11-18T08:08:49.822Z,98907.41
2022-11-18T08:11:22.618Z,98903.94
2022-11-18T08:13:52.519Z,98904.81
2022-11-18T08:16:25.154Z,98909.94
2022-11-18T08:18:54.719Z,98905.53
2022-11-18T08:21:24.710Z,98907.94
2022-11-18T08:23:53.392Z,98899.28
2022-11-18T08:26:23.135Z,98893.19
2022-11-18T08:28:51.980Z,98892.25
2022-11-18T08:31:22.947Z,98876.66
2022-11-18T08:33:56.029Z,98877.41
2022-11-18T08:36:27.069Z,98879.19
2022-11-18T08:38:57.419Z,98886.94
2022-11-18T08:41:32.749Z,98876.63
2022-11-18T08:44:01.354Z,98882.69
2022-11-18T08:46:29.839Z,98879.16
2022-11-18T08:49:00.113Z,98881.50
2022-11-18T08:51:29.559Z,98871.94
2022-11-18T08:53:58.898Z,98867.69
2022-11-18T08:56:27.426Z,98871.00
2022-11-18T08:58:57.116Z,98877.06
2022-11-18T09:01:26.214Z,98878.88
2022-11-18T09:04:01.542Z,98880.69
2022-11-18T09:06:35.698Z,98883.22
2022-11-18T09:09:06.636Z,98875.53
2022-11-18T09:11:39.398Z,98885.13
2022-11-18T09:17:01.194Z,98893.75
2022-11-18T09:19:48.382Z,98901.50
2022-11-18T09:22:19.517Z,98895.56
2022-11-18T09:24:50.729Z,98903.28
2022-11-18T09:27:21.786Z,98898.13
2022-11-18T09:29:51.326Z,98896.31
2022-11-18T09:32:21.951Z,98899.81
2022-11-18T09:34:52.015Z,98904.97
2022-11-18T09:37:33.891Z,98900.63
2022-11-18T09:40:04.015Z,98902.41
2022-11-18T09:42:53.603Z,98896.50
2022-11-18T09:45:26.964Z,98897.47
2022-11-18T09:48:00.584Z,98895.75
2022-11-18T09:53:22.733Z,98896.50
2022-11-18T09:55:53.503Z,98897.44
2022-11-18T09:58:29.225Z,98891.56
2022-11-18T10:00:57.849Z,98889.06
2022-11-18T10:03:30.023Z,98890.06
2022-11-18T10:06:01.806Z,98890.06
2022-11-18T10:08:37.324Z,98884.00
2022-11-18T10:11:13.748Z,98883.84
2022-11-18T10:13:53.548Z,98882.94
2022-11-18T10:16:33.800Z,98885.44
2022-11-18T10:19:13.096Z,98895.75
2022-11-18T10:21:53.362Z,98891.44
2022-11-18T10:24:25.648Z,98895.78
2022-11-18T10:26:56.956Z,98893.19
2022-11-18T10:29:26.414Z,98903.50
2022-11-18T10:32:03.828Z,98905.19
2022-11-18T10:34:35.075Z,98901.84
2022-11-18T10:37:06.929Z,98900.00
2022-11-18T10:39:51.649Z,98904.41
2022-11-18T10:42:28.733Z,98909.66
2022-11-18T10:45:15.799Z,98912.13
2022-11-18T10:47:44.497Z,98916.47
2022-11-18T10:50:30.750Z,98920.84
2022-11-18T10:52:59.417Z,98919.97
2022-11-18T10:55:30.042Z,98926.91
2022-11-18T10:58:03.104Z,98926.97
2022-11-18T11:00:42.465Z,98931.28
2022-11-18T11:03:36.291Z,98928.72
2022-11-18T11:06:30.375Z,98926.97
2022-11-18T11:09:02.780Z,98931.34
2022-11-18T11:11:35.200Z,98930.44
2022-11-18T11:14:18.721Z,98923.41
2022-11-18T11:16:54.878Z,98927.69
2022-11-18T11:19:26.708Z,98936.38
2022-11-18T11:21:55.041Z,98935.56
2022-11-18T11:24:27.530Z,98939.88
2022-11-18T11:30:12.488Z,98941.59
2022-11-18T11:33:10.300Z,98939.78
2022-11-18T11:35:48.344Z,98944.03
2022-11-18T11:38:27.908Z,98943.09
2022-11-18T11:41:07.516Z,98943.03
2022-11-18T11:43:49.777Z,98943.78
2022-11-18T11:46:29.503Z,98942.84
2022-11-18T11:49:11.938Z,98939.38
2022-11-18T11:51:48.844Z,98934.22
2022-11-18T11:54:41.908Z,98941.88
2022-11-18T11:57:24.824Z,98938.38
2022-11-18T12:00:03.385Z,98937.41
2022-11-18T12:02:55.184Z,98935.59
2022-11-18T12:05:31.271Z,98937.22
2022-11-18T12:08:01.834Z,98935.34
2022-11-18T12:10:37.224Z,98937.13
2022-11-18T12:13:20.935Z,98933.81
2022-11-18T12:16:00.324Z,98932.19
2022-11-18T12:18:38.810Z,98938.22
2022-11-18T12:21:07.376Z,98933.88
2022-11-18T12:23:36.761Z,98936.47
2022-11-18T12:26:10.887Z,98934.09
2022-11-18T12:28:42.400Z,98940.03
2022-11-18T12:31:40.507Z,98939.03
2022-11-18T12:34:33.409Z,98934.75
2022-11-18T12:37:34.751Z,98939.78
2022-11-18T12:40:03.836Z,98943.94
2022-11-18T12:42:59.321Z,98941.16
2022-11-18T12:45:53.134Z,98941.91
2022-11-18T12:48:38.243Z,98932.38
2022-11-18T12:51:45.266Z,98928.97
2022-11-18T12:54:27.886Z,98924.66
2022-11-18T12:56:59.204Z,98922.22
2022-11-18T12:59:30.287Z,98924.91
2022-11-18T13:02:37.682Z,98925.72
2022-11-18T13:05:10.695Z,98929.19
2022-11-18T13:08:04.707Z,98927.59
2022-11-18T13:10:39.095Z,98927.66
2022-11-18T13:13:20.293Z,98929.38
2022-11-18T13:16:09.616Z,98929.59
2022-11-18T13:18:49.621Z,98925.47
2022-11-18T13:21:45.875Z,98931.63
2022-11-18T13:24:15.448Z,98937.59
2022-11-18T13:26:47.426Z,98939.41
2022-11-18T13:29:27.841Z,98941.13
2022-11-18T13:32:09.767Z,98935.31
2022-11-18T13:34:48.375Z,98936.16
2022-11-18T13:37:21.744Z,98935.25
2022-11-18T13:39:54.055Z,98944.66
2022-11-18T13:42:24.237Z,98948.06
2022-11-18T13:44:57.650Z,98955.75
2022-11-18T13:47:32.452Z,98960.13
2022-11-18T13:50:07.365Z,98967.03
2022-11-18T13:52:41.147Z,98953.28
2022-11-18T13:55:19.743Z,98953.28
2022-11-18T13:57:51.681Z,98968.72
2022-11-18T14:00:25.595Z,98973.97
2022-11-18T14:02:59.195Z,98967.97
2022-11-18T14:05:28.183Z,98975.69
2022-11-18T14:08:06.457Z,98971.50
2022-11-18T14:10:44.180Z,98979.31
2022-11-18T14:13:24.009Z,98984.41
2022-11-18T14:15:53.482Z,98983.63
2022-11-18T14:18:32.790Z,98982.81
2022-11-18T14:21:03.164Z,98980.25
2022-11-18T14:23:35.292Z,98987.13
2022-11-18T14:26:08.420Z,98994.97
2022-11-18T14:28:40.536Z,98995.03
2022-11-18T14:31:25.411Z,98995.06
2022-11-18T14:34:22.412Z,98995.88
2022-11-18T14:36:52.251Z,99004.44
2022-11-18T14:39:26.847Z,99001.88
2022-11-18T14:41:56.750Z,99006.28
2022-11-18T14:44:27.655Z,99008.84
2022-11-18T14:47:00.736Z,99003.66
2022-11-18T14:49:31.834Z,99011.38
2022-11-18T14:52:03.016Z,99006.25
2022-11-18T14:54:33.466Z,99015.69
2022-11-18T14:57:05.781Z,99014.94
2022-11-18T14:59:35.143Z,99009.72
2022-11-18T15:02:03.989Z,99009.75
2022-11-18T15:04:32.621Z,99015.00
2022-11-18T15:07:01.425Z,99009.06
2022-11-18T15:09:30.235Z,99010.84
2022-11-18T15:12:03.905Z,99017.75
2022-11-18T15:14:32.562Z,99016.88
2022-11-18T15:17:01.214Z,99013.53
2022-11-18T15:19:32.189Z,99017.00
2022-11-18T15:22:01.897Z,99020.41
2022-11-18T15:24:30.845Z,99016.09
2022-11-18T15:27:05.359Z,99019.53
2022-11-18T15:29:34.065Z,99017.06
2022-11-18T15:32:05.329Z,99022.22
2022-11-18T15:34:34.162Z,99026.56
2022-11-18T15:37:02.554Z,99028.25
2022-11-18T15:39:31.276Z,99032.59
2022-11-18T15:42:01.536Z,99030.84
2022-11-18T15:44:30.580Z,99037.69
2022-11-18T15:47:00.217Z,99038.56
2022-11-18T15:49:29.158Z,99050.56
2022-11-18T15:51:57.947Z,99056.56
2022-11-18T15:54:26.388Z,99048.88
2022-11-18T15:56:54.746Z,99055.72
2022-11-18T15:59:24.959Z,99058.28
2022-11-18T16:01:56.995Z,99057.44
2022-11-18T16:04:25.350Z,99057.47
2022-11-18T16:06:54.545Z,99057.47
2022-11-18T16:09:23.766Z,99060.19
2022-11-18T16:12:10.002Z,99059.31
2022-11-18T16:14:39.971Z,99063.63
2022-11-18T16:17:08.457Z,99058.53
2022-11-18T16:19:37.418Z,99063.69
2022-11-18T16:22:05.941Z,99059.38
2022-11-18T16:24:34.909Z,99064.50
2022-11-18T16:27:04.724Z,99066.16
2022-11-18T16:29:33.519Z,99072.16
2022-11-18T16:32:03.429Z,99057.50
2022-11-18T16:34:32.710Z,99066.13
2022-11-18T16:37:01.565Z,99067.00
2022-11-18T16:39:30.973Z,99064.44
2022-11-18T16:42:07.925Z,99067.84
2022-11-18T16:44:37.146Z,99070.41
2022-11-18T16:47:14.300Z,99066.09
2022-11-18T16:49:44.134Z,99076.28
2022-11-18T16:52:12.719Z,99067.69
2022-11-18T16:54:45.338Z,99069.44
2022-11-18T16:57:15.490Z,99077.19
2022-11-18T16:59:44.150Z,99071.19
2022-11-18T17:02:15.767Z,99070.28
2022-11-18T17:04:44.375Z,99071.94
2022-11-18T17:07:13.902Z,99082.31
2022-11-18T17:09:42.661Z,99073.72
2022-11-18T17:12:11.144Z,99073.66
2022-11-18T17:14:40.487Z,99069.34
2022-11-18T17:17:11.029Z,99074.50
2022-11-18T17:19:40.946Z,99080.53
2022-11-18T17:22:09.579Z,99073.63
2022-11-18T17:24:38.363Z,99075.34
2022-11-18T17:27:06.931Z,99071.84
2022-11-18T17:29:35.879Z,99080.41
2022-11-18T17:32:04.341Z,99070.94
2022-11-18T17:34:32.870Z,99078.59
2022-11-18T17:37:06.815Z,99079.47
2022-11-18T17:39:37.670Z,99086.34
2022-11-18T17:42:18.016Z,99083.84
2022-11-18T17:44:46.905Z,99085.53
2022-11-18T17:47:15.323Z,99090.72
2022-11-18T17:49:44.029Z,99093.28
2022-11-18T17:52:14.526Z,99098.44
2022-11-18T17:54:43.279Z,99093.28
2022-11-18T17:57:12.216Z,99086.44
2022-11-18T17:59:40.736Z,99090.72
2022-11-18T18:02:12.941Z,99101.00
2022-11-18T18:04:41.292Z,99100.16
2022-11-18T18:07:09.717Z,99095.06
2022-11-18T18:09:39.639Z,99099.34
2022-11-18T18:12:22.391Z,99100.22
2022-11-18T18:14:51.398Z,99102.84
2022-11-18T18:17:20.299Z,99096.88
2022-11-18T18:19:48.749Z,99108.06
2022-11-18T18:22:17.139Z,99104.63
2022-11-18T18:24:47.092Z,99103.81
2022-11-18T18:27:15.596Z,99103.81
2022-11-18T18:29:44.427Z,99112.47
2022-11-18T18:32:13.218Z,99112.44
2022-11-18T18:34:41.765Z,99115.84
2022-11-18T18:37:10.215Z,99120.09
2022-11-18T18:39:38.591Z,99120.97
2022-11-18T18:42:08.631Z,99130.38
2022-11-18T18:44:51.668Z,99136.47
2022-11-18T18:47:21.856Z,99138.25
2022-11-18T18:49:50.338Z,99133.13
2022-11-18T18:52:19.444Z,99135.69
2022-11-18T18:54:48.749Z,99139.91
2022-11-18T18:57:19.258Z,99140.81
2022-11-18T18:59:47.995Z,99141.63
2022-11-18T19:02:16.441Z,99149.34
2022-11-18T19:04:46.845Z,99146.00
2022-11-18T19:07:16.974Z,99146.75
2022-11-18T19:09:45.616Z,99150.19
2022-11-18T19:12:31.750Z,99148.56
2022-11-18T19:15:02.235Z,99152.13
2022-11-18T19:17:31.098Z,99150.38
2022-11-18T19:20:17.136Z,99146.09
2022-11-18T19:22:45.964Z,99151.13
2022-11-18T19:25:14.390Z,99146.84
2022-11-18T19:27:43.742Z,99153.69
2022-11-18T19:30:14.715Z,99157.16
2022-11-18T19:32:43.971Z,99155.47
2022-11-18T19:35:13.061Z,99153.72
2022-11-18T19:37:41.986Z,99157.97
2022-11-18T19:40:12.179Z,99158.88
2022-11-18T19:42:42.083Z,99169.22
2022-11-18T19:45:13.313Z,99171.00
2022-11-18T19:47:44.077Z,99163.38
2022-11-18T19:50:13.116Z,99166.06
2022-11-18T19:52:41.484Z,99161.81
2022-11-18T19:55:11.046Z,99174.66
2022-11-18T19:57:39.820Z,99170.34
2022-11-18T20:00:10.032Z,99175.50
2022-11-18T20:02:40.563Z,99178.91
2022-11-18T20:05:26.892Z,99182.31
2022-11-18T20:07:56.978Z,99182.44
2022-11-18T20:10:25.472Z,99183.34
2022-11-18T20:12:54.002Z,99186.81
2022-11-18T20:15:22.733Z,99192.81
2022-11-18T20:17:54.894Z,99190.25
2022-11-18T20:20:25.485Z,99190.22
2022-11-18T20:22:55.045Z,99195.38
2022-11-18T20:25:27.446Z,99194.53
2022-11-18T20:27:56.304Z,99196.31
2022-11-18T20:30:24.800Z,99193.78
2022-11-18T20:32:54.791Z,99198.97
2022-11-18T20:35:23.251Z,99196.44
2022-11-18T20:37:52.401Z,99194.75
2022-11-18T20:40:20.885Z,99203.34
2022-11-18T20:43:07.405Z,99201.59
2022-11-18T20:45:35.937Z,99203.31
2022-11-18T20:48:06.413Z,99205.84
2022-11-18T20:50:37.227Z,99196.47
2022-11-18T20:53:05.904Z,99207.63
2022-11-18T20:55:38.081Z,99208.50
2022-11-18T20:58:07.441Z,99211.06
2022-11-18T21:00:36.002Z,99208.50
2022-11-18T21:03:05.989Z,99214.53
2022-11-18T21:05:36.275Z,99209.38
2022-11-18T21:08:04.895Z,99210.28
2022-11-18T21:10:33.768Z,99210.41
2022-11-18T21:13:19.763Z,99213.88
2022-11-18T21:15:48.507Z,99215.66
2022-11-18T21:18:18.895Z,99223.38
2022-11-18T21:21:04.717Z,99220.88
2022-11-18T21:23:33.491Z,99229.41
2022-11-18T21:26:08.062Z,99231.97
2022-11-18T21:28:43.958Z,99231.97
2022-11-18T21:31:16.328Z,99237.09
2022-11-18T21:33:50.072Z,99230.28
2022-11-18T21:36:23.061Z,99233.75
2022-11-18T21:38:53.735Z,99227.75
2022-11-18T21:41:23.228Z,99232.03
2022-11-18T21:44:09.491Z,99237.13
2022-11-18T21:46:42.992Z,99238.81
2022-11-18T21:49:14.329Z,99251.69
2022-11-18T21:51:46.833Z,99249.97
2022-11-18T21:54:18.617Z,99249.91
2022-11-18T21:56:48.069Z,99247.38
2022-11-18T21:59:19.494Z,99255.94
2022-11-18T22:01:50.902Z,99255.94
2022-11-18T22:04:40.043Z,99256.91
2022-11-18T22:07:09.842Z,99263.75
2022-11-18T22:09:39.385Z,99268.91
2022-11-18T22:12:09.263Z,99274.09
2022-11-18T22:14:37.843Z,99272.38
2022-11-18T22:17:06.655Z,99273.28
2022-11-18T22:19:36.920Z,99284.41
2022-11-18T22:22:05.334Z,99283.53
2022-11-18T22:24:33.994Z,99285.19
2022-11-18T22:27:04.671Z,99286.91
2022-11-18T22:29:35.973Z,99289.44
2022-11-18T22:32:05.458Z,99283.44
2022-11-18T22:34:34.087Z,99280.03
2022-11-18T22:37:06.050Z,99283.44
2022-11-18T22:39:35.307Z,99296.38
2022-11-18T22:42:21.783Z,99295.50
2022-11-18T22:44:50.278Z,99297.19
2022-11-18T22:47:19.067Z,99295.50
2022-11-18T22:49:49.888Z,99292.13
2022-11-18T22:52:22.878Z,99292.13
2022-11-18T22:54:51.306Z,99296.38
2022-11-18T22:57:20.038Z,99286.16
2022-11-18T22:59:48.683Z,99287.84
2022-11-18T23:02:17.387Z,99298.13
2022-11-18T23:04:45.845Z,99293.88
2022-11-18T23:07:14.737Z,99299.03
2022-11-18T23:09:44.655Z,99299.84
2022-11-18T23:12:30.848Z,99301.44
2022-11-18T23:14:59.272Z,99307.44
2022-11-18T23:17:27.584Z,99301.44
2022-11-18T23:19:56.117Z,99302.38
2022-11-18T23:22:24.747Z,99301.56
2022-11-18T23:24:54.889Z,99295.56
2022-11-18T23:27:23.630Z,99303.28
2022-11-18T23:29:51.878Z,99304.09
2022-11-18T23:32:20.847Z,99299.81
2022-11-18T23:34:49.456Z,99307.53
2022-11-18T23:37:18.231Z,99302.41
2022-11-18T23:39:46.577Z,99298.16
2022-11-18T23:42:16.307Z,99301.53
2022-11-18T23:44:49.285Z,99302.41
2022-11-18T23:47:18.953Z,99299.03
2022-11-18T23:49:47.245Z,99300.72
2022-11-18T23:52:16.028Z,99303.28
2022-11-18T23:54:45.040Z,99299.81
2022-11-18T23:57:13.533Z,99298.06
2022-11-18T23:59:43.653Z,99298.94
